createdAt,value
2018-10-21T12:20:23.704Z,626.25
2018-10-21T12:22:52.106Z,495.77
2018-10-21T12:25:20.467Z,529.75
2018-10-21T12:27:48.590Z,472.75
2018-10-21T12:30:16.748Z,553.83
2018-10-21T12:32:44.976Z,543.27
2018-10-21T12:35:13.268Z,553.15
2018-10-21T12:37:41.664Z,569.13
2018-10-21T12:40:10.339Z,567.35
2018-10-21T12:42:39.133Z,569.37
2018-10-21T12:45:09.763Z,565.40
2018-10-21T12:47:38.332Z,579.87
2018-10-21T12:50:07.246Z,563.33
2018-10-21T12:52:35.592Z,556.23
2018-10-21T12:55:04.626Z,563.40
2018-10-21T12:57:32.919Z,29.23
2018-10-21T13:00:01.199Z,25.80
2018-10-21T13:02:29.429Z,27.87
2018-10-21T13:04:57.692Z,24.67
2018-10-21T13:07:25.926Z,25.50
2018-10-21T13:09:54.168Z,29.07
2018-10-21T13:12:22.519Z,27.10
2018-10-21T13:14:50.739Z,27.15
2018-10-21T13:17:18.970Z,24.37
2018-10-21T13:19:47.280Z,26.60
2018-10-21T13:22:15.695Z,26.33
2018-10-21T13:24:43.858Z,25.70
2018-10-21T13:27:12.163Z,26.17
2018-10-21T13:29:40.458Z,26.80
2018-10-21T13:32:08.786Z,27.80
2018-10-21T13:34:37.029Z,26.73
2018-10-21T13:37:05.357Z,25.90
2018-10-21T13:39:33.612Z,26.62
2018-10-21T13:42:01.886Z,23.85
2018-10-21T13:44:30.105Z,23.10
2018-10-21T13:46:58.374Z,22.20
2018-10-21T13:49:26.595Z,25.37
2018-10-21T13:51:54.916Z,23.15
2018-10-21T13:54:23.073Z,24.50
2018-10-21T13:56:51.312Z,26.20
2018-10-21T13:59:19.717Z,24.32
2018-10-21T14:01:47.969Z,23.02
2018-10-21T14:04:16.365Z,25.30
2018-10-21T14:06:44.624Z,25.68
2018-10-21T14:09:13.601Z,22.75
2018-10-21T14:11:41.878Z,26.80
2018-10-21T14:14:11.062Z,22.40
2018-10-21T14:16:39.648Z,23.95
2018-10-21T14:19:08.364Z,24.87
2018-10-21T14:21:36.625Z,26.50
2018-10-21T14:24:05.172Z,22.30
2018-10-21T14:26:33.489Z,22.95
2018-10-21T14:29:01.786Z,24.00
2018-10-21T14:31:30.100Z,26.95
2018-10-21T14:33:58.313Z,22.77
2018-10-21T14:36:26.516Z,21.60
2018-10-21T14:38:54.781Z,24.12
2018-10-21T14:41:23.113Z,21.37
2018-10-21T14:43:51.433Z,20.12
2018-10-21T14:46:19.643Z,21.07
2018-10-21T14:48:48.765Z,18.82
2018-10-21T14:51:17.086Z,23.05
2018-10-21T14:53:45.346Z,17.15
2018-10-21T14:56:13.808Z,23.73
2018-10-21T14:58:41.928Z,19.55
2018-10-21T15:01:10.210Z,17.00
2018-10-21T15:03:38.522Z,20.15
2018-10-21T15:06:06.752Z,20.62
2018-10-21T15:08:34.931Z,15.98
2018-10-21T15:11:03.240Z,18.73
2018-10-21T15:13:31.466Z,15.15
2018-10-21T15:15:59.727Z,17.60
2018-10-21T15:18:27.965Z,16.05
2018-10-21T15:20:56.213Z,12.15
2018-10-21T15:23:26.483Z,13.18
2018-10-21T15:25:57.535Z,11.93
2018-10-21T15:28:25.790Z,11.43
2018-10-21T15:30:54.090Z,8.00
2018-10-21T15:33:22.336Z,9.85
2018-10-21T15:35:50.865Z,7.22
2018-10-21T15:38:19.160Z,6.45
2018-10-21T15:40:47.353Z,6.55
2018-10-21T15:43:15.677Z,5.53
2018-10-21T15:45:44.017Z,8.65
2018-10-21T15:48:12.342Z,4.87
2018-10-21T15:50:40.644Z,5.30
2018-10-21T15:53:08.847Z,4.60
2018-10-21T15:55:37.157Z,6.95
2018-10-21T15:58:05.521Z,4.10
2018-10-21T16:00:33.784Z,6.55
2018-10-21T16:03:02.099Z,5.67
2018-10-21T16:05:30.332Z,7.65
2018-10-21T16:07:58.660Z,4.78
2018-10-21T16:10:26.870Z,3.95
2018-10-21T16:12:55.148Z,4.97
2018-10-21T16:15:23.449Z,8.90
2018-10-21T16:17:51.730Z,10.23
2018-10-21T16:20:20.156Z,5.20
2018-10-21T16:22:48.282Z,8.03
2018-10-21T16:25:16.581Z,8.08
2018-10-21T16:27:44.846Z,5.10
2018-10-21T16:30:14.347Z,4.20
2018-10-21T16:32:43.314Z,5.35
2018-10-21T16:35:12.019Z,5.50
2018-10-21T16:37:40.649Z,7.35
2018-10-21T16:40:11.749Z,6.97
2018-10-21T16:42:40.125Z,8.65
2018-10-21T16:45:09.396Z,8.48
2018-10-21T16:47:38.324Z,8.95
2018-10-21T16:50:13.224Z,9.53
2018-10-21T16:52:42.701Z,8.30
2018-10-21T16:55:11.654Z,6.15
2018-10-21T16:57:40.037Z,5.33
2018-10-21T17:00:13.060Z,12.23
2018-10-21T17:02:41.629Z,9.43
2018-10-21T17:05:10.237Z,11.25
2018-10-21T17:07:38.567Z,9.55
2018-10-21T17:10:08.512Z,10.23
2018-10-21T17:12:36.612Z,7.28
2018-10-21T17:15:05.963Z,10.70
2018-10-21T17:17:34.433Z,7.30
2018-10-21T17:20:02.818Z,24.60
2018-10-21T17:22:31.136Z,12.10
2018-10-21T17:24:59.588Z,11.20
2018-10-21T17:27:27.791Z,18.35
2018-10-21T17:29:56.037Z,15.20
2018-10-21T17:32:24.343Z,9.35
2018-10-21T17:34:52.593Z,8.33
2018-10-21T17:37:20.912Z,12.90
2018-10-21T17:39:49.213Z,15.43
2018-10-21T17:42:17.706Z,10.10
2018-10-21T17:44:45.948Z,10.70
2018-10-21T17:47:14.242Z,14.30
2018-10-21T17:49:42.523Z,17.73
2018-10-21T17:52:10.963Z,13.83
2018-10-21T17:54:39.133Z,14.35
2018-10-21T17:57:07.480Z,13.98
2018-10-21T17:59:36.054Z,14.35
2018-10-21T18:02:04.614Z,12.23
2018-10-21T18:04:32.877Z,11.57
2018-10-21T18:07:01.298Z,9.98
2018-10-21T18:09:29.566Z,20.50
2018-10-21T18:11:57.884Z,20.08
2018-10-21T18:14:26.189Z,21.00
2018-10-21T18:16:54.462Z,12.30
2018-10-21T18:19:22.881Z,7.70
2018-10-21T18:21:51.176Z,12.78
2018-10-21T18:24:19.650Z,28.17
2018-10-21T18:26:47.940Z,36.73
2018-10-21T18:29:16.287Z,7.00
2018-10-21T18:31:44.651Z,13.28
2018-10-21T18:34:12.985Z,45.03
2018-10-21T18:36:41.244Z,35.73
2018-10-21T18:39:10.323Z,19.57
2018-10-21T18:41:38.618Z,9.75
2018-10-21T18:44:07.558Z,11.48
2018-10-21T18:46:35.924Z,11.85
2018-10-21T18:49:04.337Z,12.18
2018-10-21T18:51:32.610Z,13.98
2018-10-21T18:54:00.864Z,13.88
2018-10-21T18:56:29.179Z,8.65
2018-10-21T18:58:57.583Z,11.90
2018-10-21T19:01:25.875Z,35.30
2018-10-21T19:03:54.200Z,20.90
2018-10-21T19:06:22.452Z,25.52
2018-10-21T19:08:50.711Z,74.17
2018-10-21T19:11:18.982Z,52.73
2018-10-21T19:13:47.330Z,35.48
2018-10-21T19:16:15.641Z,28.35
2018-10-21T19:18:44.158Z,30.35
2018-10-21T19:21:12.451Z,31.20
2018-10-21T19:23:40.696Z,15.45
2018-10-21T19:26:08.955Z,12.28
2018-10-21T19:28:37.239Z,21.65
2018-10-21T19:31:06.242Z,18.10
2018-10-21T19:33:34.524Z,15.18
2018-10-21T19:36:02.810Z,14.63
2018-10-21T19:38:31.067Z,14.70
2018-10-21T19:40:59.369Z,15.63
2018-10-21T19:43:27.670Z,14.93
2018-10-21T19:45:55.920Z,14.40
2018-10-21T19:48:24.207Z,23.20
2018-10-21T19:50:52.418Z,19.65
2018-10-21T19:53:20.657Z,14.18
2018-10-21T19:55:48.946Z,16.23
2018-10-21T19:58:17.298Z,14.38
2018-10-21T20:00:45.517Z,9.50
2018-10-21T20:03:13.840Z,9.08
2018-10-21T20:05:42.106Z,9.40
2018-10-21T20:08:10.430Z,10.48
2018-10-21T20:10:38.694Z,13.30
2018-10-21T20:13:06.998Z,15.38
2018-10-21T20:15:35.205Z,14.73
2018-10-21T20:18:03.786Z,14.47
2018-10-21T20:20:32.025Z,15.32
2018-10-21T20:23:00.321Z,15.10
2018-10-21T20:25:28.612Z,16.85
2018-10-21T20:27:56.898Z,15.08
2018-10-21T20:30:25.146Z,11.45
2018-10-21T20:32:53.500Z,7.95
2018-10-21T20:35:21.733Z,13.50
2018-10-21T20:37:50.019Z,14.80
2018-10-21T20:40:18.394Z,20.72
2018-10-21T20:42:46.804Z,15.72
2018-10-21T20:45:15.060Z,15.72
2018-10-21T20:47:43.365Z,9.70
2018-10-21T20:50:11.622Z,9.20
2018-10-21T20:52:39.871Z,13.03
2018-10-21T20:55:08.936Z,13.13
2018-10-21T20:57:37.164Z,12.35
2018-10-21T21:00:05.848Z,9.88
2018-10-21T21:02:34.142Z,13.38
2018-10-21T21:05:02.515Z,11.40
2018-10-21T21:07:30.797Z,11.25
2018-10-21T21:09:59.046Z,7.87
2018-10-21T21:12:27.284Z,16.30
2018-10-21T21:14:55.547Z,9.30
2018-10-21T21:17:23.765Z,9.83
2018-10-21T21:19:51.970Z,8.15
2018-10-21T21:22:20.279Z,7.33
2018-10-21T21:24:48.424Z,6.92
2018-10-21T21:27:16.696Z,7.62
2018-10-21T21:29:44.973Z,11.38
2018-10-21T21:32:13.238Z,8.38
2018-10-21T21:34:41.539Z,10.05
2018-10-21T21:37:09.760Z,8.68
2018-10-21T21:39:37.971Z,9.60
2018-10-21T21:42:06.241Z,6.67
2018-10-21T21:44:34.501Z,9.88
2018-10-21T21:47:02.784Z,8.48
2018-10-21T21:49:31.025Z,9.48
2018-10-21T21:51:59.274Z,7.97
2018-10-21T21:54:27.535Z,9.95
2018-10-21T21:56:55.707Z,9.10
2018-10-21T21:59:23.952Z,9.65
2018-10-21T22:01:52.197Z,9.93
2018-10-21T22:04:20.402Z,8.93
2018-10-21T22:06:48.831Z,9.33
2018-10-21T22:09:17.040Z,11.85
2018-10-21T22:11:45.288Z,9.53
2018-10-21T22:14:13.557Z,10.03
2018-10-21T22:16:41.857Z,11.73
2018-10-21T22:19:10.098Z,10.38
2018-10-21T22:21:38.828Z,8.73
2018-10-21T22:24:08.338Z,7.85
2018-10-21T22:26:36.615Z,7.58
2018-10-21T22:29:05.074Z,11.30
2018-10-21T22:31:33.357Z,8.95
2018-10-21T22:34:01.666Z,8.53
2018-10-21T22:36:29.916Z,9.63
2018-10-21T22:38:58.160Z,8.70
2018-10-21T22:41:26.440Z,8.23
2018-10-21T22:43:54.629Z,8.53
2018-10-21T22:46:22.936Z,8.35
2018-10-21T22:48:51.154Z,8.65
2018-10-21T22:51:19.403Z,8.45
2018-10-21T22:53:47.634Z,8.80
2018-10-21T22:56:16.057Z,9.93
2018-10-21T22:58:44.267Z,9.28
2018-10-21T23:01:12.596Z,11.10
2018-10-21T23:03:40.855Z,9.73
2018-10-21T23:06:09.085Z,10.60
2018-10-21T23:08:37.304Z,13.85
2018-10-21T23:11:05.496Z,11.65
2018-10-21T23:13:33.733Z,11.70
2018-10-21T23:16:02.053Z,9.25
2018-10-21T23:18:30.495Z,11.05
2018-10-21T23:20:58.703Z,10.20
2018-10-21T23:23:26.973Z,8.60
2018-10-21T23:25:55.256Z,9.95
2018-10-21T23:28:23.485Z,9.50
2018-10-21T23:30:51.816Z,11.30
2018-10-21T23:33:20.076Z,10.00
2018-10-21T23:35:48.350Z,12.68
2018-10-21T23:38:16.619Z,10.78
2018-10-21T23:40:44.800Z,10.03
2018-10-21T23:43:13.004Z,8.73
2018-10-21T23:45:41.223Z,8.30
2018-10-21T23:48:09.466Z,8.18
2018-10-21T23:50:37.660Z,7.97
2018-10-21T23:53:06.349Z,8.60
2018-10-21T23:55:34.523Z,8.30
2018-10-21T23:58:02.790Z,8.28
